sensor_id;sensor_type;location;lat;lon;timestamp;pressure;altitude;pressure_sealevel;temperature;humidity
69058;BME280;56128;37.534;-122.308;2023-03-31T00:00:33;101623.19;;;11.47;100.00
69058;BME280;56128;37.534;-122.308;2023-03-31T00:02:59;101620.69;;;11.44;100.00
69058;BME280;56128;37.534;-122.308;2023-03-31T00:05:25;101616.94;;;11.47;100.00
69058;BME280;56128;37.534;-122.308;2023-03-31T00:07:56;101621.28;;;11.49;100.00
69058;BME280;56128;37.534;-122.308;2023-03-31T00:10:30;101623.84;;;11.51;100.00
69058;BME280;56128;37.534;-122.308;2023-03-31T00:13:00;101622.38;;;11.60;100.00
69058;BME280;56128;37.534;-122.308;2023-03-31T00:15:27;101622.69;;;11.68;100.00
69058;BME280;56128;37.534;-122.308;2023-03-31T00:17:53;101626.13;;;11.70;100.00
69058;BME280;56128;37.534;-122.308;2023-03-31T00:20:24;101628.06;;;11.68;100.00
69058;BME280;56128;37.534;-122.308;2023-03-31T00:22:51;101626.31;;;11.54;100.00
69058;BME280;56128;37.534;-122.308;2023-03-31T00:25:19;101637.13;;;11.52;100.00
69058;BME280;56128;37.534;-122.308;2023-03-31T00:27:46;101635.50;;;11.50;100.00
69058;BME280;56128;37.534;-122.308;2023-03-31T00:30:15;101627.78;;;11.45;100.00
69058;BME280;56128;37.534;-122.308;2023-03-31T00:32:41;101637.78;;;11.56;100.00
69058;BME280;56128;37.534;-122.308;2023-03-31T00:35:08;101642.78;;;11.48;100.00
69058;BME280;56128;37.534;-122.308;2023-03-31T00:37:35;101645.56;;;11.46;100.00
69058;BME280;56128;37.534;-122.308;2023-03-31T00:40:01;101644.06;;;11.42;100.00
69058;BME280;56128;37.534;-122.308;2023-03-31T00:42:43;101645.13;;;11.40;100.00
69058;BME280;56128;37.534;-122.308;2023-03-31T00:48:16;101645.38;;;11.22;100.00
69058;BME280;56128;37.534;-122.308;2023-03-31T00:50:41;101649.66;;;11.25;100.00
69058;BME280;56128;37.534;-122.308;2023-03-31T00:53:15;101650.81;;;11.20;100.00
69058;BME280;56128;37.534;-122.308;2023-03-31T00:55:47;101638.69;;;11.15;100.00
69058;BME280;56128;37.534;-122.308;2023-03-31T00:58:16;101660.00;;;11.16;100.00
69058;BME280;56128;37.534;-122.308;2023-03-31T01:00:48;101666.44;;;11.14;100.00
69058;BME280;56128;37.534;-122.308;2023-03-31T01:03:18;101662.13;;;11.11;100.00
69058;BME280;56128;37.534;-122.308;2023-03-31T01:05:50;101656.97;;;11.08;100.00
69058;BME280;56128;37.534;-122.308;2023-03-31T01:08:21;101660.13;;;11.00;100.00
69058;BME280;56128;37.534;-122.308;2023-03-31T01:10:53;101666.75;;;10.95;100.00
69058;BME280;56128;37.534;-122.308;2023-03-31T01:13:20;101668.84;;;10.90;100.00
69058;BME280;56128;37.534;-122.308;2023-03-31T01:15:47;101666.66;;;10.82;100.00
69058;BME280;56128;37.534;-122.308;2023-03-31T01:18:13;101666.00;;;10.78;100.00
69058;BME280;56128;37.534;-122.308;2023-03-31T01:21:20;101666.09;;;10.77;100.00
69058;BME280;56128;37.534;-122.308;2023-03-31T01:35:38;101677.78;;;10.31;100.00
69058;BME280;56128;37.534;-122.308;2023-03-31T01:46:52;101677.88;;;9.99;100.00
69058;BME280;56128;37.534;-122.308;2023-03-31T01:52:12;101680.63;;;9.83;100.00
69058;BME280;56128;37.534;-122.308;2023-03-31T01:54:59;101661.00;;;9.68;100.00
69058;BME280;56128;37.534;-122.308;2023-03-31T01:57:36;101685.03;;;9.68;100.00
69058;BME280;56128;37.534;-122.308;2023-03-31T02:00:08;101682.88;;;9.58;100.00
69058;BME280;56128;37.534;-122.308;2023-03-31T02:05:19;101687.81;;;9.50;100.00
69058;BME280;56128;37.534;-122.308;2023-03-31T02:07:50;101692.91;;;9.39;100.00
69058;BME280;56128;37.534;-122.308;2023-03-31T02:10:20;101688.84;;;9.32;100.00
69058;BME280;56128;37.534;-122.308;2023-03-31T02:12:49;101692.81;;;9.24;100.00
69058;BME280;56128;37.534;-122.308;2023-03-31T02:15:20;101688.94;;;9.14;100.00
69058;BME280;56128;37.534;-122.308;2023-03-31T02:18:08;101690.38;;;9.04;100.00
69058;BME280;56128;37.534;-122.308;2023-03-31T02:20:39;101694.44;;;8.95;100.00
69058;BME280;56128;37.534;-122.308;2023-03-31T02:23:09;101684.41;;;8.83;100.00
69058;BME280;56128;37.534;-122.308;2023-03-31T02:25:41;101690.78;;;8.80;100.00
69058;BME280;56128;37.534;-122.308;2023-03-31T02:28:15;101692.97;;;8.72;100.00
69058;BME280;56128;37.534;-122.308;2023-03-31T02:30:51;101697.00;;;8.63;100.00
69058;BME280;56128;37.534;-122.308;2023-03-31T02:33:20;101704.56;;;8.55;100.00
69058;BME280;56128;37.534;-122.308;2023-03-31T02:35:46;101704.16;;;8.45;100.00
69058;BME280;56128;37.534;-122.308;2023-03-31T02:38:13;101697.72;;;8.32;100.00
69058;BME280;56128;37.534;-122.308;2023-03-31T02:40:39;101704.31;;;8.24;100.00
69058;BME280;56128;37.534;-122.308;2023-03-31T02:43:05;101705.59;;;8.17;100.00
69058;BME280;56128;37.534;-122.308;2023-03-31T02:45:48;101704.34;;;8.07;100.00
69058;BME280;56128;37.534;-122.308;2023-03-31T02:48:22;101711.84;;;7.99;100.00
69058;BME280;56128;37.534;-122.308;2023-03-31T03:05:03;101717.69;;;7.51;100.00
69058;BME280;56128;37.534;-122.308;2023-03-31T03:15:25;101732.53;;;7.19;100.00
69058;BME280;56128;37.534;-122.308;2023-03-31T03:17:54;101733.09;;;7.06;100.00
69058;BME280;56128;37.534;-122.308;2023-03-31T03:20:21;101738.66;;;7.02;100.00
69058;BME280;56128;37.534;-122.308;2023-03-31T03:22:48;101743.31;;;6.96;100.00
69058;BME280;56128;37.534;-122.308;2023-03-31T03:25:15;101740.06;;;6.90;100.00
69058;BME280;56128;37.534;-122.308;2023-03-31T03:27:45;101745.72;;;6.82;100.00
69058;BME280;56128;37.534;-122.308;2023-03-31T03:30:15;101752.97;;;6.78;100.00
69058;BME280;56128;37.534;-122.308;2023-03-31T03:32:42;101760.38;;;6.72;100.00
69058;BME280;56128;37.534;-122.308;2023-03-31T03:35:08;101766.03;;;6.64;100.00
69058;BME280;56128;37.534;-122.308;2023-03-31T03:37:36;101773.28;;;6.60;100.00
69058;BME280;56128;37.534;-122.308;2023-03-31T03:40:20;101777.13;;;6.53;100.00
69058;BME280;56128;37.534;-122.308;2023-03-31T03:42:47;101780.19;;;6.44;100.00
69058;BME280;56128;37.534;-122.308;2023-03-31T03:45:13;101786.69;;;6.37;100.00
69058;BME280;56128;37.534;-122.308;2023-03-31T03:47:39;101787.94;;;6.28;100.00
69058;BME280;56128;37.534;-122.308;2023-03-31T03:50:06;101780.88;;;6.27;100.00
69058;BME280;56128;37.534;-122.308;2023-03-31T03:52:32;101788.28;;;6.18;100.00
69058;BME280;56128;37.534;-122.308;2023-03-31T03:54:58;101788.44;;;6.15;100.00
69058;BME280;56128;37.534;-122.308;2023-03-31T03:57:27;101794.06;;;6.08;100.00
69058;BME280;56128;37.534;-122.308;2023-03-31T03:59:53;101797.78;;;6.04;100.00
69058;BME280;56128;37.534;-122.308;2023-03-31T04:02:21;101800.63;;;5.99;100.00
69058;BME280;56128;37.534;-122.308;2023-03-31T04:04:47;101804.31;;;5.95;100.00
69058;BME280;56128;37.534;-122.308;2023-03-31T04:07:13;101810.78;;;5.88;100.00
69058;BME280;56128;37.534;-122.308;2023-03-31T04:09:43;101817.88;;;5.87;100.00
69058;BME280;56128;37.534;-122.308;2023-03-31T04:12:09;101815.53;;;5.79;100.00
69058;BME280;56128;37.534;-122.308;2023-03-31T04:14:35;101822.72;;;5.76;100.00
69058;BME280;56128;37.534;-122.308;2023-03-31T04:17:07;101830.84;;;5.73;100.00
69058;BME280;56128;37.534;-122.308;2023-03-31T04:19:36;101829.28;;;5.67;100.00
69058;BME280;56128;37.534;-122.308;2023-03-31T04:22:04;101841.69;;;5.66;100.00
69058;BME280;56128;37.534;-122.308;2023-03-31T04:24:36;101836.63;;;5.60;100.00
69058;BME280;56128;37.534;-122.308;2023-03-31T04:27:05;101851.72;;;5.58;100.00
69058;BME280;56128;37.534;-122.308;2023-03-31T04:29:35;101856.88;;;5.63;100.00
69058;BME280;56128;37.534;-122.308;2023-03-31T04:32:02;101865.66;;;5.65;100.00
69058;BME280;56128;37.534;-122.308;2023-03-31T04:34:30;101874.19;;;5.73;100.00
69058;BME280;56128;37.534;-122.308;2023-03-31T04:37:00;101878.50;;;5.76;100.00
69058;BME280;56128;37.534;-122.308;2023-03-31T04:39:29;101876.50;;;5.82;100.00
69058;BME280;56128;37.534;-122.308;2023-03-31T04:42:00;101885.50;;;5.78;100.00
69058;BME280;56128;37.534;-122.308;2023-03-31T04:44:26;101879.31;;;5.78;100.00
69058;BME280;56128;37.534;-122.308;2023-03-31T04:46:53;101892.75;;;5.75;100.00
69058;BME280;56128;37.534;-122.308;2023-03-31T04:49:21;101893.66;;;5.74;100.00
69058;BME280;56128;37.534;-122.308;2023-03-31T04:51:49;101903.59;;;5.68;100.00
69058;BME280;56128;37.534;-122.308;2023-03-31T04:54:16;101900.41;;;5.59;100.00
69058;BME280;56128;37.534;-122.308;2023-03-31T04:56:42;101902.25;;;5.57;100.00
69058;BME280;56128;37.534;-122.308;2023-03-31T04:59:09;101906.78;;;5.53;100.00
69058;BME280;56128;37.534;-122.308;2023-03-31T05:01:39;101916.22;;;5.62;100.00
69058;BME280;56128;37.534;-122.308;2023-03-31T05:04:09;101919.06;;;5.57;100.00
69058;BME280;56128;37.534;-122.308;2023-03-31T05:06:37;101913.97;;;5.51;100.00
69058;BME280;56128;37.534;-122.308;2023-03-31T05:09:05;101915.88;;;5.47;100.00
69058;BME280;56128;37.534;-122.308;2023-03-31T05:11:33;101921.19;;;5.46;100.00
69058;BME280;56128;37.534;-122.308;2023-03-31T05:14:00;101917.00;;;5.40;100.00
69058;BME280;56128;37.534;-122.308;2023-03-31T05:16:27;101922.41;;;5.37;100.00
69058;BME280;56128;37.534;-122.308;2023-03-31T05:18:53;101922.66;;;5.31;100.00
69058;BME280;56128;37.534;-122.308;2023-03-31T05:21:22;101921.97;;;5.24;100.00
69058;BME280;56128;37.534;-122.308;2023-03-31T05:23:50;101921.13;;;5.24;100.00
69058;BME280;56128;37.534;-122.308;2023-03-31T05:26:17;101925.72;;;5.18;100.00
69058;BME280;56128;37.534;-122.308;2023-03-31T05:28:45;101929.34;;;5.16;100.00
69058;BME280;56128;37.534;-122.308;2023-03-31T05:31:12;101928.66;;;5.11;100.00
69058;BME280;56128;37.534;-122.308;2023-03-31T05:33:39;101930.34;;;5.12;100.00
69058;BME280;56128;37.534;-122.308;2023-03-31T05:36:14;101926.22;;;5.04;100.00
69058;BME280;56128;37.534;-122.308;2023-03-31T05:38:42;101917.44;;;5.02;100.00
69058;BME280;56128;37.534;-122.308;2023-03-31T05:41:10;101928.03;;;5.02;100.00
69058;BME280;56128;37.534;-122.308;2023-03-31T05:43:38;101922.03;;;4.97;100.00
69058;BME280;56128;37.534;-122.308;2023-03-31T05:46:12;101919.59;;;4.91;100.00
69058;BME280;56128;37.534;-122.308;2023-03-31T05:48:40;101926.63;;;4.92;100.00
69058;BME280;56128;37.534;-122.308;2023-03-31T05:51:06;101939.00;;;4.92;100.00
69058;BME280;56128;37.534;-122.308;2023-03-31T05:53:33;101933.88;;;4.87;100.00
69058;BME280;56128;37.534;-122.308;2023-03-31T05:56:03;101926.91;;;4.83;100.00
69058;BME280;56128;37.534;-122.308;2023-03-31T05:58:36;101935.00;;;4.80;100.00
69058;BME280;56128;37.534;-122.308;2023-03-31T06:01:05;101941.22;;;4.79;100.00
69058;BME280;56128;37.534;-122.308;2023-03-31T06:03:35;101933.56;;;4.69;100.00
69058;BME280;56128;37.534;-122.308;2023-03-31T06:06:04;101938.88;;;4.68;100.00
69058;BME280;56128;37.534;-122.308;2023-03-31T06:08:34;101941.66;;;4.65;100.00
69058;BME280;56128;37.534;-122.308;2023-03-31T06:11:11;101949.81;;;4.59;100.00
69058;BME280;56128;37.534;-122.308;2023-03-31T06:13:40;101949.91;;;4.55;100.00
69058;BME280;56128;37.534;-122.308;2023-03-31T06:16:06;101944.81;;;4.49;100.00
69058;BME280;56128;37.534;-122.308;2023-03-31T06:18:34;101947.53;;;4.46;100.00
69058;BME280;56128;37.534;-122.308;2023-03-31T06:21:01;101943.41;;;4.37;100.00
69058;BME280;56128;37.534;-122.308;2023-03-31T06:23:28;101947.84;;;4.37;100.00
69058;BME280;56128;37.534;-122.308;2023-03-31T06:26:02;101949.72;;;4.33;100.00
69058;BME280;56128;37.534;-122.308;2023-03-31T06:28:30;101946.44;;;4.25;100.00
69058;BME280;56128;37.534;-122.308;2023-03-31T06:31:17;101941.22;;;4.22;100.00
69058;BME280;56128;37.534;-122.308;2023-03-31T06:33:46;101939.50;;;4.21;100.00
69058;BME280;56128;37.534;-122.308;2023-03-31T06:36:15;101943.94;;;4.20;100.00
69058;BME280;56128;37.534;-122.308;2023-03-31T06:38:43;101943.16;;;4.17;100.00
69058;BME280;56128;37.534;-122.308;2023-03-31T06:41:12;101939.69;;;4.15;100.00
69058;BME280;56128;37.534;-122.308;2023-03-31T06:43:39;101946.78;;;4.13;100.00
69058;BME280;56128;37.534;-122.308;2023-03-31T06:46:06;101946.97;;;4.06;100.00
69058;BME280;56128;37.534;-122.308;2023-03-31T06:48:32;101942.56;;;4.07;100.00
69058;BME280;56128;37.534;-122.308;2023-03-31T06:51:02;101932.97;;;4.03;100.00
69058;BME280;56128;37.534;-122.308;2023-03-31T06:53:29;101939.13;;;4.03;100.00
69058;BME280;56128;37.534;-122.308;2023-03-31T06:55:56;101941.88;;;4.00;100.00
69058;BME280;56128;37.534;-122.308;2023-03-31T06:58:23;101947.25;;;3.97;100.00
69058;BME280;56128;37.534;-122.308;2023-03-31T07:00:49;101950.81;;;3.96;100.00
69058;BME280;56128;37.534;-122.308;2023-03-31T07:03:16;101955.25;;;3.96;100.00
69058;BME280;56128;37.534;-122.308;2023-03-31T07:05:53;101947.53;;;3.88;100.00
69058;BME280;56128;37.534;-122.308;2023-03-31T07:08:23;101952.84;;;3.86;100.00
69058;BME280;56128;37.534;-122.308;2023-03-31T07:10:56;101951.22;;;3.82;100.00
69058;BME280;56128;37.534;-122.308;2023-03-31T07:13:24;101958.38;;;3.79;100.00
69058;BME280;56128;37.534;-122.308;2023-03-31T07:15:51;101959.28;;;3.79;100.00
69058;BME280;56128;37.534;-122.308;2023-03-31T07:18:18;101953.19;;;3.76;100.00
69058;BME280;56128;37.534;-122.308;2023-03-31T07:20:49;101952.34;;;3.73;100.00
69058;BME280;56128;37.534;-122.308;2023-03-31T07:23:15;101944.75;;;3.63;100.00
69058;BME280;56128;37.534;-122.308;2023-03-31T07:25:42;101952.69;;;3.63;100.00
69058;BME280;56128;37.534;-122.308;2023-03-31T07:28:08;101965.06;;;3.61;100.00
69058;BME280;56128;37.534;-122.308;2023-03-31T07:30:35;101956.41;;;3.55;100.00
69058;BME280;56128;37.534;-122.308;2023-03-31T07:33:01;101969.63;;;3.55;100.00
69058;BME280;56128;37.534;-122.308;2023-03-31T07:35:29;101969.75;;;3.51;100.00
69058;BME280;56128;37.534;-122.308;2023-03-31T07:37:55;101969.75;;;3.51;100.00
69058;BME280;56128;37.534;-122.308;2023-03-31T07:40:24;101970.69;;;3.48;100.00
69058;BME280;56128;37.534;-122.308;2023-03-31T07:42:51;101969.00;;;3.46;100.00
69058;BME280;56128;37.534;-122.308;2023-03-31T07:45:20;101973.50;;;3.42;100.00
69058;BME280;56128;37.534;-122.308;2023-03-31T07:47:46;101972.66;;;3.41;100.00
69058;BME280;56128;37.534;-122.308;2023-03-31T07:50:34;101973.63;;;3.37;100.00
69058;BME280;56128;37.534;-122.308;2023-03-31T07:53:01;101982.56;;;3.33;100.00
69058;BME280;56128;37.534;-122.308;2023-03-31T07:55:28;101978.25;;;3.29;100.00
69058;BME280;56128;37.534;-122.308;2023-03-31T07:57:55;101980.97;;;3.26;100.00
69058;BME280;56128;37.534;-122.308;2023-03-31T08:00:21;101975.84;;;3.20;100.00
69058;BME280;56128;37.534;-122.308;2023-03-31T08:02:49;101980.19;;;3.22;100.00
69058;BME280;56128;37.534;-122.308;2023-03-31T08:05:17;101987.31;;;3.20;100.00
69058;BME280;56128;37.534;-122.308;2023-03-31T08:07:46;101984.63;;;3.22;100.00
69058;BME280;56128;37.534;-122.308;2023-03-31T08:10:16;101983.34;;;3.37;100.00
69058;BME280;56128;37.534;-122.308;2023-03-31T08:12:43;101995.78;;;3.33;100.00
69058;BME280;56128;37.534;-122.308;2023-03-31T08:15:10;101997.59;;;3.31;100.00
69058;BME280;56128;37.534;-122.308;2023-03-31T08:17:37;101999.50;;;3.26;100.00
69058;BME280;56128;37.534;-122.308;2023-03-31T08:20:05;101995.28;;;3.19;100.00
69058;BME280;56128;37.534;-122.308;2023-03-31T08:22:33;102002.38;;;3.17;100.00
69058;BME280;56128;37.534;-122.308;2023-03-31T08:25:00;101996.41;;;3.10;100.00
69058;BME280;56128;37.534;-122.308;2023-03-31T08:27:26;102002.63;;;3.07;100.00
69058;BME280;56128;37.534;-122.308;2023-03-31T08:29:52;101994.00;;;2.99;100.00
69058;BME280;56128;37.534;-122.308;2023-03-31T08:32:22;102005.56;;;2.95;100.00
69058;BME280;56128;37.534;-122.308;2023-03-31T08:34:48;102010.84;;;2.95;100.00
69058;BME280;56128;37.534;-122.308;2023-03-31T08:37:15;101993.44;;;2.86;100.00
69058;BME280;56128;37.534;-122.308;2023-03-31T08:39:41;102011.03;;;2.87;100.00
69058;BME280;56128;37.534;-122.308;2023-03-31T08:42:17;102008.41;;;2.86;100.00
69058;BME280;56128;37.534;-122.308;2023-03-31T08:47:26;102015.53;;;2.84;100.00
69058;BME280;56128;37.534;-122.308;2023-03-31T08:49:58;102012.03;;;2.82;100.00
69058;BME280;56128;37.534;-122.308;2023-03-31T08:52:43;102018.88;;;2.90;100.00
69058;BME280;56128;37.534;-122.308;2023-03-31T08:55:42;102016.00;;;3.00;100.00
69058;BME280;56128;37.534;-122.308;2023-03-31T08:58:28;102016.75;;;3.06;100.00
69058;BME280;56128;37.534;-122.308;2023-03-31T09:04:05;102022.09;;;3.03;100.00
69058;BME280;56128;37.534;-122.308;2023-03-31T09:06:40;102024.00;;;2.98;100.00
69058;BME280;56128;37.534;-122.308;2023-03-31T09:09:22;102029.41;;;2.92;100.00
69058;BME280;56128;37.534;-122.308;2023-03-31T09:11:57;102033.00;;;2.89;100.00
69058;BME280;56128;37.534;-122.308;2023-03-31T09:20:43;102027.09;;;2.78;100.00
69058;BME280;56128;37.534;-122.308;2023-03-31T09:23:26;102032.44;;;2.76;100.00
69058;BME280;56128;37.534;-122.308;2023-03-31T09:25:54;102040.41;;;2.75;100.00
69058;BME280;56128;37.534;-122.308;2023-03-31T09:28:38;102038.75;;;2.69;100.00
69058;BME280;56128;37.534;-122.308;2023-03-31T09:31:15;102029.97;;;2.67;100.00
69058;BME280;56128;37.534;-122.308;2023-03-31T09:33:46;102041.47;;;2.66;100.00
69058;BME280;56128;37.534;-122.308;2023-03-31T09:36:16;102041.44;;;2.68;100.00
69058;BME280;56128;37.534;-122.308;2023-03-31T09:38:44;102049.41;;;2.66;100.00
69058;BME280;56128;37.534;-122.308;2023-03-31T09:41:13;102036.34;;;2.58;100.00
69058;BME280;56128;37.534;-122.308;2023-03-31T09:43:41;102052.06;;;2.66;100.00
69058;BME280;56128;37.534;-122.308;2023-03-31T09:46:20;102045.91;;;2.64;100.00
69058;BME280;56128;37.534;-122.308;2023-03-31T09:48:54;102043.38;;;2.59;100.00
69058;BME280;56128;37.534;-122.308;2023-03-31T09:51:29;102049.41;;;2.66;100.00
69058;BME280;56128;37.534;-122.308;2023-03-31T09:54:01;102046.88;;;2.62;100.00
69058;BME280;56128;37.534;-122.308;2023-03-31T09:59:23;102048.66;;;2.61;100.00
69058;BME280;56128;37.534;-122.308;2023-03-31T10:01:57;102047.72;;;2.62;100.00
69058;BME280;56128;37.534;-122.308;2023-03-31T10:04:43;102046.91;;;2.60;100.00
69058;BME280;56128;37.534;-122.308;2023-03-31T10:07:10;102053.03;;;2.60;100.00
69058;BME280;56128;37.534;-122.308;2023-03-31T10:09:38;102048.69;;;2.58;100.00
69058;BME280;56128;37.534;-122.308;2023-03-31T10:12:15;102058.28;;;2.62;100.00
69058;BME280;56128;37.534;-122.308;2023-03-31T10:14:49;102056.56;;;2.61;100.00
69058;BME280;56128;37.534;-122.308;2023-03-31T10:17:23;102054.00;;;2.58;100.00
69058;BME280;56128;37.534;-122.308;2023-03-31T10:20:41;102054.97;;;2.54;100.00
69058;BME280;56128;37.534;-122.308;2023-03-31T10:22:44;102069.00;;;2.56;100.00
69058;BME280;56128;37.534;-122.308;2023-03-31T10:25:21;102060.28;;;2.52;100.00
69058;BME280;56128;37.534;-122.308;2023-03-31T10:27:52;102057.69;;;2.49;100.00
69058;BME280;56128;37.534;-122.308;2023-03-31T10:30:23;102060.44;;;2.44;100.00
69058;BME280;56128;37.534;-122.308;2023-03-31T10:32:49;102064.84;;;2.44;100.00
69058;BME280;56128;37.534;-122.308;2023-03-31T10:35:31;102057.88;;;2.41;100.00
69058;BME280;56128;37.534;-122.308;2023-03-31T10:38:03;102063.16;;;2.41;100.00
69058;BME280;56128;37.534;-122.308;2023-03-31T10:40:32;102065.84;;;2.38;100.00
69058;BME280;56128;37.534;-122.308;2023-03-31T10:43:15;102061.56;;;2.33;100.00
69058;BME280;56128;37.534;-122.308;2023-03-31T10:45:51;102064.19;;;2.34;100.00
69058;BME280;56128;37.534;-122.308;2023-03-31T10:48:33;102066.94;;;2.28;100.00
69058;BME280;56128;37.534;-122.308;2023-03-31T10:51:18;102059.91;;;2.29;100.00
69058;BME280;56128;37.534;-122.308;2023-03-31T10:53:48;102070.56;;;2.24;100.00
69058;BME280;56128;37.534;-122.308;2023-03-31T10:56:34;102065.31;;;2.21;100.00
69058;BME280;56128;37.534;-122.308;2023-03-31T11:12:59;102062.13;;;2.03;100.00
69058;BME280;56128;37.534;-122.308;2023-03-31T11:26:28;102076.16;;;2.07;100.00
69058;BME280;56128;37.534;-122.308;2023-03-31T11:29:10;102081.44;;;2.08;100.00
69058;BME280;56128;37.534;-122.308;2023-03-31T11:37:25;102064.84;;;2.00;100.00
69058;BME280;56128;37.534;-122.308;2023-03-31T11:46:07;102080.38;;;2.16;100.00
69058;BME280;56128;37.534;-122.308;2023-03-31T11:51:20;102076.13;;;2.10;100.00
69058;BME280;56128;37.534;-122.308;2023-03-31T11:53:49;102074.34;;;2.10;100.00
69058;BME280;56128;37.534;-122.308;2023-03-31T11:56:17;102074.41;;;2.07;100.00
69058;BME280;56128;37.534;-122.308;2023-03-31T11:58:51;102071.00;;;2.01;100.00
69058;BME280;56128;37.534;-122.308;2023-03-31T12:02:03;102078.88;;;2.04;100.00
69058;BME280;56128;37.534;-122.308;2023-03-31T12:04:38;102083.25;;;2.05;100.00
69058;BME280;56128;37.534;-122.308;2023-03-31T12:10:11;102089.47;;;2.02;100.00
69058;BME280;56128;37.534;-122.308;2023-03-31T12:13:19;102080.63;;;2.03;100.00
69058;BME280;56128;37.534;-122.308;2023-03-31T12:16:19;102085.09;;;2.01;100.00
69058;BME280;56128;37.534;-122.308;2023-03-31T12:21:24;102077.16;;;2.01;100.00
69058;BME280;56128;37.534;-122.308;2023-03-31T12:23:52;102086.84;;;2.02;100.00
69058;BME280;56128;37.534;-122.308;2023-03-31T12:29:31;102086.84;;;2.01;100.00
69058;BME280;56128;37.534;-122.308;2023-03-31T12:32:03;102086.88;;;1.99;100.00
69058;BME280;56128;37.534;-122.308;2023-03-31T12:34:35;102097.41;;;2.01;100.00
69058;BME280;56128;37.534;-122.308;2023-03-31T12:40:51;102092.19;;;1.98;100.00
69058;BME280;56128;37.534;-122.308;2023-03-31T12:43:26;102087.84;;;1.95;100.00
69058;BME280;56128;37.534;-122.308;2023-03-31T12:48:52;102093.16;;;1.92;100.00
69058;BME280;56128;37.534;-122.308;2023-03-31T12:52:44;102094.16;;;1.86;100.00
69058;BME280;56128;37.534;-122.308;2023-03-31T12:54:56;102105.56;;;1.88;100.00
69058;BME280;56128;37.534;-122.308;2023-03-31T12:57:27;102102.03;;;1.88;100.00
69058;BME280;56128;37.534;-122.308;2023-03-31T13:00:14;102106.34;;;1.92;100.00
69058;BME280;56128;37.534;-122.308;2023-03-31T13:02:44;102109.81;;;1.95;100.00
69058;BME280;56128;37.534;-122.308;2023-03-31T13:08:04;102110.75;;;1.93;100.00
69058;BME280;56128;37.534;-122.308;2023-03-31T13:10:31;102116.03;;;1.93;100.00
69058;BME280;56128;37.534;-122.308;2023-03-31T13:13:02;102117.88;;;1.88;100.00
69058;BME280;56128;37.534;-122.308;2023-03-31T13:15:30;102114.34;;;1.89;100.00
69058;BME280;56128;37.534;-122.308;2023-03-31T13:18:05;102118.72;;;1.90;100.00
69058;BME280;56128;37.534;-122.308;2023-03-31T13:20:36;102131.94;;;1.90;100.00
69058;BME280;56128;37.534;-122.308;2023-03-31T13:23:16;102131.94;;;1.90;100.00
69058;BME280;56128;37.534;-122.308;2023-03-31T13:25:51;102117.88;;;1.88;100.00
69058;BME280;56128;37.534;-122.308;2023-03-31T13:44:46;102161.91;;;1.87;100.00
69058;BME280;56128;37.534;-122.308;2023-03-31T13:58:31;102183.63;;;2.02;100.00
69058;BME280;56128;37.534;-122.308;2023-03-31T14:06:54;102190.34;;;2.21;100.00
69058;BME280;56128;37.534;-122.308;2023-03-31T14:09:36;102190.19;;;2.29;100.00
69058;BME280;56128;37.534;-122.308;2023-03-31T14:12:19;102196.25;;;2.34;100.00
69058;BME280;56128;37.534;-122.308;2023-03-31T14:14:47;102192.78;;;2.32;100.00
69058;BME280;56128;37.534;-122.308;2023-03-31T14:17:17;102201.50;;;2.37;100.00
69058;BME280;56128;37.534;-122.308;2023-03-31T14:28:16;102221.50;;;2.49;100.00
69058;BME280;56128;37.534;-122.308;2023-03-31T14:39:00;102225.56;;;2.67;100.00
69058;BME280;56128;37.534;-122.308;2023-03-31T14:41:30;102231.66;;;2.72;100.00
69058;BME280;56128;37.534;-122.308;2023-03-31T14:44:00;102232.38;;;2.79;100.00
69058;BME280;56128;37.534;-122.308;2023-03-31T14:46:30;102239.22;;;2.89;100.00
69058;BME280;56128;37.534;-122.308;2023-03-31T14:49:28;102246.09;;;2.98;100.00
69058;BME280;56128;37.534;-122.308;2023-03-31T14:51:57;102237.88;;;3.12;100.00
69058;BME280;56128;37.534;-122.308;2023-03-31T14:54:24;102249.09;;;3.25;100.00
69058;BME280;56128;37.534;-122.308;2023-03-31T14:56:55;102241.78;;;3.36;100.00
69058;BME280;56128;37.534;-122.308;2023-03-31T14:59:31;102254.63;;;3.53;100.00
69058;BME280;56128;37.534;-122.308;2023-03-31T15:02:01;102245.41;;;3.70;100.00
69058;BME280;56128;37.534;-122.308;2023-03-31T15:04:36;102243.31;;;3.84;100.00
69058;BME280;56128;37.534;-122.308;2023-03-31T15:07:10;102241.94;;;4.04;100.00
69058;BME280;56128;37.534;-122.308;2023-03-31T15:09:36;102248.47;;;4.25;100.00
69058;BME280;56128;37.534;-122.308;2023-03-31T15:12:11;102250.75;;;4.39;100.00
69058;BME280;56128;37.534;-122.308;2023-03-31T15:14:51;102260.22;;;4.49;100.00
69058;BME280;56128;37.534;-122.308;2023-03-31T15:17:28;102257.84;;;4.71;100.00
69058;BME280;56128;37.534;-122.308;2023-03-31T15:19:58;102262.91;;;4.81;100.00
69058;BME280;56128;37.534;-122.308;2023-03-31T15:22:26;102268.78;;;4.92;100.00
69058;BME280;56128;37.534;-122.308;2023-03-31T15:24:56;102261.59;;;5.26;100.00
69058;BME280;56128;37.534;-122.308;2023-03-31T15:27:37;102269.91;;;5.45;100.00
69058;BME280;56128;37.534;-122.308;2023-03-31T15:30:18;102265.75;;;5.64;100.00
69058;BME280;56128;37.534;-122.308;2023-03-31T15:32:47;102265.63;;;6.24;100.00
69058;BME280;56128;37.534;-122.308;2023-03-31T15:35:31;102268.38;;;6.73;100.00